TimeCDT,TemperatureF,Dew PointF,Humidity,Sea Level PressureIn,VisibilityMPH,Wind Direction,Wind SpeedMPH,Gust SpeedMPH,PrecipitationIn,Events,Conditions,WindDirDegrees,DateUTC
12:35 AM,-9999,-9999,N/A,30.00,10.0,South,4.6,-,N/A,,Partly Cloudy,170,2013-06-17 05:35:00
12:55 AM,-9999,-9999,N/A,30.00,10.0,Calm,Calm,-,N/A,,Scattered Clouds,0,2013-06-17 05:55:00
1:15 AM,-9999,-9999,N/A,30.00,10.0,Calm,Calm,-,N/A,,Mostly Cloudy,0,2013-06-17 06:15:00
1:35 AM,-9999,-9999,N/A,30.00,10.0,Calm,Calm,-,N/A,,Mostly Cloudy,0,2013-06-17 06:35:00
1:55 AM,-9999,-9999,N/A,29.99,10.0,SSW,4.6,-,N/A,,Mostly Cloudy,210,2013-06-17 06:55:00
2:15 AM,-9999,-9999,N/A,29.99,8.0,South,3.5,-,N/A,,Partly Cloudy,190,2013-06-17 07:15:00
2:35 AM,-9999,-9999,N/A,29.98,10.0,Calm,Calm,-,N/A,,Clear,0,2013-06-17 07:35:00
2:55 AM,-9999,-9999,N/A,29.98,10.0,South,3.5,-,N/A,,Scattered Clouds,180,2013-06-17 07:55:00
3:15 AM,-9999,-9999,N/A,29.98,10.0,SW,4.6,-,N/A,,Partly Cloudy,220,2013-06-17 08:15:00
3:35 AM,-9999,-9999,N/A,29.99,9.0,SSW,4.6,-,N/A,,Mostly Cloudy,210,2013-06-17 08:35:00
3:55 AM,-9999,-9999,N/A,29.98,10.0,SSW,3.5,-,N/A,,Scattered Clouds,200,2013-06-17 08:55:00
4:15 AM,-9999,-9999,N/A,29.98,7.0,WSW,4.6,-,N/A,,Mostly Cloudy,240,2013-06-17 09:15:00
4:35 AM,-9999,-9999,N/A,29.98,4.0,Calm,Calm,-,N/A,,Overcast,0,2013-06-17 09:35:00
4:55 AM,-9999,-9999,N/A,29.98,5.0,Calm,Calm,-,N/A,,Scattered Clouds,0,2013-06-17 09:55:00
5:15 AM,-9999,-9999,N/A,29.98,10.0,SSE,3.5,-,N/A,,Clear,160,2013-06-17 10:15:00
5:35 AM,-9999,-9999,N/A,29.99,10.0,ESE,3.5,-,N/A,,Clear,120,2013-06-17 10:35:00
5:55 AM,-9999,-9999,N/A,29.98,8.0,ESE,3.5,-,N/A,,Scattered Clouds,120,2013-06-17 10:55:00
6:15 AM,-9999,-9999,N/A,29.98,6.0,ESE,3.5,-,N/A,,Partly Cloudy,110,2013-06-17 11:15:00
6:35 AM,-9999,-9999,N/A,29.98,8.0,Calm,Calm,-,N/A,,Clear,0,2013-06-17 11:35:00
6:55 AM,-9999,-9999,N/A,29.99,8.0,Calm,Calm,-,N/A,,Partly Cloudy,0,2013-06-17 11:55:00
7:15 AM,-9999,-9999,N/A,30.00,8.0,ENE,4.6,-,N/A,,Unknown,60,2013-06-17 12:15:00
7:35 AM,-9999,-9999,N/A,29.99,8.0,ESE,3.5,-,N/A,,Overcast,120,2013-06-17 12:35:00
7:55 AM,-9999,-9999,N/A,29.99,10.0,Calm,Calm,-,N/A,,Unknown,0,2013-06-17 12:55:00
8:15 AM,-9999,-9999,N/A,29.99,10.0,Calm,Calm,-,N/A,,Partly Cloudy,0,2013-06-17 13:15:00
8:35 AM,-9999,-9999,N/A,29.99,8.0,Calm,Calm,-,N/A,,Clear,0,2013-06-17 13:35:00
8:55 AM,80.6,80.6,100,30.00,9.0,Calm,Calm,-,N/A,,Clear,0,2013-06-17 13:55:00
9:15 AM,80.6,80.6,100,29.98,-9999.0,SSE,4.6,-,N/A,,Unknown,150,2013-06-17 14:15:00
9:35 AM,80.6,80.6,100,29.99,10.0,SSE,4.6,-,N/A,,Partly Cloudy,160,2013-06-17 14:35:00
9:55 AM,82.4,82.4,100,29.99,10.0,South,3.5,-,N/A,,Partly Cloudy,190,2013-06-17 14:55:00
10:15 AM,84.2,84.2,100,29.99,10.0,South,3.5,-,N/A,,Partly Cloudy,170,2013-06-17 15:15:00
10:35 AM,84.2,84.2,100,29.99,10.0,Calm,Calm,-,N/A,,Partly Cloudy,0,2013-06-17 15:35:00
10:55 AM,84.2,84.2,100,30.00,9.0,South,5.8,-,N/A,,Scattered Clouds,190,2013-06-17 15:55:00
11:15 AM,86.0,84.2,94,29.99,10.0,SSE,5.8,-,N/A,,Scattered Clouds,150,2013-06-17 16:15:00
11:35 AM,82.4,82.4,100,29.99,10.0,SSE,3.5,-,N/A,,Mostly Cloudy,150,2013-06-17 16:35:00
11:55 AM,82.4,82.4,100,29.98,10.0,East,5.8,-,N/A,,Overcast,100,2013-06-17 16:55:00
12:15 PM,86.0,82.4,89,29.97,10.0,Variable,5.8,-,N/A,,Scattered Clouds,0,2013-06-17 17:15:00
12:35 PM,87.8,78.8,75,29.95,10.0,SSE,4.6,-,N/A,,Partly Cloudy,150,2013-06-17 17:35:00
12:55 PM,82.4,82.4,100,29.95,9.0,SSE,10.4,-,N/A,,Mostly Cloudy,160,2013-06-17 17:55:00
1:15 PM,71.6,71.6,100,29.96,2.0,ESE,12.7,-,N/A,,Overcast,110,2013-06-17 18:15:00
1:35 PM,71.6,71.6,100,29.97,10.0,NW,8.1,-,N/A,,Overcast,320,2013-06-17 18:35:00
1:55 PM,73.4,73.4,100,29.95,10.0,ENE,8.1,-,N/A,,Mostly Cloudy,70,2013-06-17 18:55:00
2:15 PM,75.2,75.2,100,29.94,10.0,SE,5.8,-,N/A,,Mostly Cloudy,130,2013-06-17 19:15:00
2:35 PM,73.4,73.4,100,29.96,10.0,SSE,15.0,-,N/A,,Mostly Cloudy,150,2013-06-17 19:35:00
2:55 PM,-9999,-9999,N/A,29.95,6.0,ESE,13.8,-,N/A,,Mostly Cloudy,110,2013-06-17 19:55:00
3:15 PM,-9999,-9999,N/A,29.94,10.0,East,13.8,-,N/A,,Mostly Cloudy,100,2013-06-17 20:15:00
3:35 PM,-9999,-9999,N/A,29.94,10.0,East,8.1,-,N/A,,Scattered Clouds,80,2013-06-17 20:35:00
3:55 PM,75.2,75.2,100,29.93,10.0,South,3.5,-,N/A,,Clear,190,2013-06-17 20:55:00
4:15 PM,78.8,78.8,100,29.93,10.0,SSE,3.5,-,N/A,,Clear,150,2013-06-17 21:15:00
4:35 PM,77.0,77.0,100,29.93,10.0,Calm,Calm,-,N/A,,Scattered Clouds,0,2013-06-17 21:35:00
4:55 PM,75.2,75.2,100,29.94,10.0,SW,5.8,-,N/A,,Overcast,230,2013-06-17 21:55:00
5:15 PM,75.2,75.2,100,29.94,1.5,South,4.6,-,N/A,,Overcast,190,2013-06-17 22:15:00
5:35 PM,-9999,-9999,N/A,29.95,1.0,WSW,4.6,-,N/A,,Unknown,240,2013-06-17 22:35:00
5:55 PM,-9999,-9999,N/A,29.94,1.2,Calm,Calm,-,N/A,,Overcast,0,2013-06-17 22:55:00
6:15 PM,-9999,-9999,N/A,29.93,5.0,SSE,3.5,-,N/A,,Mostly Cloudy,150,2013-06-17 23:15:00
6:35 PM,-9999,-9999,N/A,29.92,8.0,South,3.5,-,N/A,,Mostly Cloudy,170,2013-06-17 23:35:00
6:55 PM,-9999,-9999,N/A,29.92,10.0,Calm,Calm,-,N/A,,Scattered Clouds,0,2013-06-17 23:55:00
7:15 PM,-9999,-9999,N/A,29.91,10.0,Calm,Calm,-,N/A,,Partly Cloudy,0,2013-06-18 00:15:00
7:35 PM,-9999,-9999,N/A,29.92,8.0,Calm,Calm,-,N/A,,Mostly Cloudy,0,2013-06-18 00:35:00
7:55 PM,-9999,-9999,N/A,29.92,9.0,Calm,Calm,-,N/A,,Mostly Cloudy,0,2013-06-18 00:55:00
8:15 PM,-9999,-9999,N/A,29.92,10.0,Calm,Calm,-,N/A,,Clear,0,2013-06-18 01:15:00
8:35 PM,-9999,-9999,N/A,29.92,10.0,Calm,Calm,-,N/A,,Clear,0,2013-06-18 01:35:00
8:55 PM,-9999,-9999,N/A,29.91,10.0,Calm,Calm,-,N/A,,Partly Cloudy,0,2013-06-18 01:55:00
9:15 PM,-9999,-9999,N/A,29.90,10.0,South,3.5,-,N/A,,Partly Cloudy,170,2013-06-18 02:15:00
9:35 PM,-9999,-9999,N/A,29.90,10.0,Calm,Calm,-,N/A,,Clear,0,2013-06-18 02:35:00
9:55 PM,-9999,-9999,N/A,29.91,7.0,Calm,Calm,-,N/A,,Clear,0,2013-06-18 02:55:00
10:15 PM,-9999,-9999,N/A,29.90,7.0,Calm,Calm,-,N/A,,Mostly Cloudy,0,2013-06-18 03:15:00
10:35 PM,-9999,-9999,N/A,29.90,10.0,Calm,Calm,-,N/A,,Scattered Clouds,0,2013-06-18 03:35:00
10:55 PM,-9999,-9999,N/A,29.89,7.0,South,3.5,-,N/A,,Mostly Cloudy,190,2013-06-18 03:55:00
11:15 PM,-9999,-9999,N/A,29.89,6.0,SSW,3.5,-,N/A,,Overcast,200,2013-06-18 04:15:00
11:35 PM,-9999,-9999,N/A,29.89,4.0,Calm,Calm,-,N/A,,Overcast,0,2013-06-18 04:35:00
11:55 PM,-9999,-9999,N/A,29.89,4.0,Calm,Calm,-,N/A,,Overcast,0,2013-06-18 04:55:00